sensor_id;sensor_type;location;lat;lon;timestamp;P1;durP1;ratioP1;P2;durP2;ratioP2
14165;SDS011;7162;52.422;13.754;2023-06-24T00:01:27;10.80;;;7.30;;
14165;SDS011;7162;52.422;13.754;2023-06-24T00:03:56;17.67;;;7.87;;
14165;SDS011;7162;52.422;13.754;2023-06-24T00:06:23;14.30;;;7.67;;
14165;SDS011;7162;52.422;13.754;2023-06-24T00:08:52;12.90;;;7.40;;
14165;SDS011;7162;52.422;13.754;2023-06-24T00:11:25;23.33;;;7.93;;
14165;SDS011;7162;52.422;13.754;2023-06-24T00:13:52;14.67;;;7.10;;
14165;SDS011;7162;52.422;13.754;2023-06-24T00:16:19;26.60;;;8.40;;
14165;SDS011;7162;52.422;13.754;2023-06-24T00:18:52;12.40;;;7.07;;
14165;SDS011;7162;52.422;13.754;2023-06-24T00:21:19;12.70;;;7.03;;
14165;SDS011;7162;52.422;13.754;2023-06-24T00:23:47;16.30;;;8.07;;
14165;SDS011;7162;52.422;13.754;2023-06-24T00:26:16;15.30;;;8.13;;
14165;SDS011;7162;52.422;13.754;2023-06-24T00:28:43;14.17;;;8.20;;
14165;SDS011;7162;52.422;13.754;2023-06-24T00:31:10;13.00;;;8.10;;
14165;SDS011;7162;52.422;13.754;2023-06-24T00:33:37;12.07;;;7.10;;
14165;SDS011;7162;52.422;13.754;2023-06-24T00:36:04;20.53;;;7.70;;
14165;SDS011;7162;52.422;13.754;2023-06-24T00:38:33;12.53;;;7.13;;
14165;SDS011;7162;52.422;13.754;2023-06-24T00:41:00;16.13;;;8.13;;
14165;SDS011;7162;52.422;13.754;2023-06-24T00:43:28;11.17;;;7.00;;
14165;SDS011;7162;52.422;13.754;2023-06-24T00:45:55;10.43;;;6.97;;
14165;SDS011;7162;52.422;13.754;2023-06-24T00:48:23;12.53;;;7.63;;
14165;SDS011;7162;52.422;13.754;2023-06-24T00:50:50;12.77;;;6.80;;
14165;SDS011;7162;52.422;13.754;2023-06-24T00:53:17;13.37;;;8.83;;
14165;SDS011;7162;52.422;13.754;2023-06-24T00:55:45;17.30;;;7.73;;
14165;SDS011;7162;52.422;13.754;2023-06-24T00:58:13;13.63;;;8.03;;
14165;SDS011;7162;52.422;13.754;2023-06-24T01:00:42;12.87;;;7.83;;
14165;SDS011;7162;52.422;13.754;2023-06-24T01:03:11;18.30;;;8.00;;
14165;SDS011;7162;52.422;13.754;2023-06-24T01:05:39;11.47;;;7.80;;
14165;SDS011;7162;52.422;13.754;2023-06-24T01:08:06;11.17;;;7.70;;
14165;SDS011;7162;52.422;13.754;2023-06-24T01:10:34;19.10;;;7.90;;
14165;SDS011;7162;52.422;13.754;2023-06-24T01:13:01;25.90;;;8.83;;
14165;SDS011;7162;52.422;13.754;2023-06-24T01:15:28;15.50;;;8.00;;
14165;SDS011;7162;52.422;13.754;2023-06-24T01:17:59;13.67;;;8.47;;
14165;SDS011;7162;52.422;13.754;2023-06-24T01:20:29;15.83;;;9.10;;
14165;SDS011;7162;52.422;13.754;2023-06-24T01:23:18;17.50;;;8.43;;
14165;SDS011;7162;52.422;13.754;2023-06-24T01:25:53;19.80;;;9.23;;
14165;SDS011;7162;52.422;13.754;2023-06-24T01:28:30;16.70;;;9.93;;
14165;SDS011;7162;52.422;13.754;2023-06-24T01:31:05;19.73;;;9.77;;
14165;SDS011;7162;52.422;13.754;2023-06-24T01:33:41;22.40;;;11.17;;
14165;SDS011;7162;52.422;13.754;2023-06-24T01:36:09;19.27;;;11.40;;
14165;SDS011;7162;52.422;13.754;2023-06-24T01:38:41;23.40;;;11.50;;
14165;SDS011;7162;52.422;13.754;2023-06-24T01:41:09;21.83;;;11.20;;
14165;SDS011;7162;52.422;13.754;2023-06-24T01:43:38;27.27;;;12.93;;
14165;SDS011;7162;52.422;13.754;2023-06-24T01:46:08;22.60;;;12.63;;
14165;SDS011;7162;52.422;13.754;2023-06-24T01:48:36;22.83;;;13.30;;
14165;SDS011;7162;52.422;13.754;2023-06-24T01:51:06;24.93;;;13.80;;
14165;SDS011;7162;52.422;13.754;2023-06-24T01:53:34;23.47;;;12.90;;
14165;SDS011;7162;52.422;13.754;2023-06-24T01:56:04;23.53;;;13.17;;
14165;SDS011;7162;52.422;13.754;2023-06-24T01:58:32;27.83;;;13.70;;
14165;SDS011;7162;52.422;13.754;2023-06-24T02:01:01;27.00;;;13.50;;
14165;SDS011;7162;52.422;13.754;2023-06-24T02:03:28;26.43;;;13.37;;
14165;SDS011;7162;52.422;13.754;2023-06-24T02:05:56;28.10;;;13.27;;
14165;SDS011;7162;52.422;13.754;2023-06-24T02:08:25;23.50;;;13.57;;
14165;SDS011;7162;52.422;13.754;2023-06-24T02:10:52;25.70;;;13.70;;
14165;SDS011;7162;52.422;13.754;2023-06-24T02:13:20;25.00;;;13.37;;
14165;SDS011;7162;52.422;13.754;2023-06-24T02:15:48;24.13;;;14.10;;
14165;SDS011;7162;52.422;13.754;2023-06-24T02:18:15;25.57;;;12.83;;
14165;SDS011;7162;52.422;13.754;2023-06-24T02:20:43;23.93;;;13.20;;
14165;SDS011;7162;52.422;13.754;2023-06-24T02:23:10;22.47;;;12.83;;
14165;SDS011;7162;52.422;13.754;2023-06-24T02:25:40;22.53;;;14.07;;
14165;SDS011;7162;52.422;13.754;2023-06-24T02:28:07;20.40;;;12.57;;
14165;SDS011;7162;52.422;13.754;2023-06-24T02:30:35;22.07;;;13.50;;
14165;SDS011;7162;52.422;13.754;2023-06-24T02:33:02;24.00;;;12.80;;
14165;SDS011;7162;52.422;13.754;2023-06-24T02:35:29;23.00;;;13.00;;
14165;SDS011;7162;52.422;13.754;2023-06-24T02:37:56;23.97;;;12.50;;
14165;SDS011;7162;52.422;13.754;2023-06-24T02:40:23;20.67;;;12.17;;
14165;SDS011;7162;52.422;13.754;2023-06-24T02:42:51;24.13;;;12.23;;
14165;SDS011;7162;52.422;13.754;2023-06-24T02:45:18;24.33;;;11.87;;
14165;SDS011;7162;52.422;13.754;2023-06-24T02:47:45;16.60;;;10.07;;
14165;SDS011;7162;52.422;13.754;2023-06-24T02:50:13;20.30;;;11.87;;
14165;SDS011;7162;52.422;13.754;2023-06-24T02:52:41;21.73;;;11.17;;
14165;SDS011;7162;52.422;13.754;2023-06-24T02:55:08;18.60;;;10.13;;
14165;SDS011;7162;52.422;13.754;2023-06-24T02:57:35;17.50;;;9.77;;
14165;SDS011;7162;52.422;13.754;2023-06-24T03:00:06;19.40;;;10.70;;
14165;SDS011;7162;52.422;13.754;2023-06-24T03:02:33;16.43;;;9.70;;
14165;SDS011;7162;52.422;13.754;2023-06-24T03:05:01;22.10;;;9.13;;
14165;SDS011;7162;52.422;13.754;2023-06-24T03:07:28;16.03;;;9.83;;
14165;SDS011;7162;52.422;13.754;2023-06-24T03:09:55;13.73;;;9.17;;
14165;SDS011;7162;52.422;13.754;2023-06-24T03:12:23;17.67;;;10.13;;
14165;SDS011;7162;52.422;13.754;2023-06-24T03:14:50;19.93;;;10.73;;
14165;SDS011;7162;52.422;13.754;2023-06-24T03:17:18;20.13;;;10.20;;
14165;SDS011;7162;52.422;13.754;2023-06-24T03:19:45;19.30;;;11.30;;
14165;SDS011;7162;52.422;13.754;2023-06-24T03:22:12;19.70;;;9.80;;
14165;SDS011;7162;52.422;13.754;2023-06-24T03:24:39;17.67;;;10.57;;
14165;SDS011;7162;52.422;13.754;2023-06-24T03:27:06;19.70;;;11.20;;
14165;SDS011;7162;52.422;13.754;2023-06-24T03:29:32;15.40;;;9.67;;
14165;SDS011;7162;52.422;13.754;2023-06-24T03:31:59;18.67;;;10.40;;
14165;SDS011;7162;52.422;13.754;2023-06-24T03:34:28;17.23;;;9.87;;
14165;SDS011;7162;52.422;13.754;2023-06-24T03:36:55;17.33;;;9.87;;
14165;SDS011;7162;52.422;13.754;2023-06-24T03:39:22;16.47;;;9.90;;
14165;SDS011;7162;52.422;13.754;2023-06-24T03:41:48;15.77;;;9.63;;
14165;SDS011;7162;52.422;13.754;2023-06-24T03:44:15;14.70;;;9.87;;
14165;SDS011;7162;52.422;13.754;2023-06-24T03:46:42;17.50;;;9.77;;
14165;SDS011;7162;52.422;13.754;2023-06-24T03:49:09;16.13;;;10.00;;
14165;SDS011;7162;52.422;13.754;2023-06-24T03:51:38;15.43;;;10.10;;
14165;SDS011;7162;52.422;13.754;2023-06-24T03:54:04;19.17;;;10.17;;
14165;SDS011;7162;52.422;13.754;2023-06-24T03:56:31;17.47;;;8.40;;
14165;SDS011;7162;52.422;13.754;2023-06-24T03:58:58;24.17;;;9.40;;
14165;SDS011;7162;52.422;13.754;2023-06-24T04:01:25;17.60;;;9.60;;
14165;SDS011;7162;52.422;13.754;2023-06-24T04:03:56;15.53;;;9.00;;
14165;SDS011;7162;52.422;13.754;2023-06-24T04:06:23;16.97;;;9.67;;
14165;SDS011;7162;52.422;13.754;2023-06-24T04:08:52;18.70;;;9.07;;
14165;SDS011;7162;52.422;13.754;2023-06-24T04:11:18;17.20;;;9.93;;
14165;SDS011;7162;52.422;13.754;2023-06-24T04:13:45;20.13;;;10.13;;
14165;SDS011;7162;52.422;13.754;2023-06-24T04:16:13;14.07;;;10.00;;
14165;SDS011;7162;52.422;13.754;2023-06-24T04:18:41;23.20;;;9.27;;
14165;SDS011;7162;52.422;13.754;2023-06-24T04:21:08;14.93;;;8.70;;
14165;SDS011;7162;52.422;13.754;2023-06-24T04:23:34;13.87;;;8.73;;
14165;SDS011;7162;52.422;13.754;2023-06-24T04:26:03;15.80;;;9.87;;
14165;SDS011;7162;52.422;13.754;2023-06-24T04:28:30;13.00;;;9.00;;
14165;SDS011;7162;52.422;13.754;2023-06-24T04:30:57;18.57;;;9.80;;
14165;SDS011;7162;52.422;13.754;2023-06-24T04:33:24;14.97;;;10.03;;
14165;SDS011;7162;52.422;13.754;2023-06-24T04:35:51;17.30;;;9.80;;
14165;SDS011;7162;52.422;13.754;2023-06-24T04:38:18;18.50;;;9.80;;
14165;SDS011;7162;52.422;13.754;2023-06-24T04:40:45;24.87;;;11.17;;
14165;SDS011;7162;52.422;13.754;2023-06-24T04:43:14;14.37;;;8.73;;
14165;SDS011;7162;52.422;13.754;2023-06-24T04:45:41;16.53;;;10.10;;
14165;SDS011;7162;52.422;13.754;2023-06-24T04:48:08;18.87;;;10.17;;
14165;SDS011;7162;52.422;13.754;2023-06-24T04:50:34;16.03;;;8.90;;
14165;SDS011;7162;52.422;13.754;2023-06-24T04:53:01;12.67;;;8.67;;
14165;SDS011;7162;52.422;13.754;2023-06-24T04:55:28;16.13;;;9.73;;
14165;SDS011;7162;52.422;13.754;2023-06-24T04:57:55;15.30;;;8.73;;
14165;SDS011;7162;52.422;13.754;2023-06-24T05:00:24;14.80;;;8.63;;
14165;SDS011;7162;52.422;13.754;2023-06-24T05:02:51;18.23;;;9.20;;
14165;SDS011;7162;52.422;13.754;2023-06-24T05:05:18;11.27;;;8.27;;
14165;SDS011;7162;52.422;13.754;2023-06-24T05:07:45;13.77;;;8.43;;
14165;SDS011;7162;52.422;13.754;2023-06-24T05:10:12;16.50;;;8.40;;
14165;SDS011;7162;52.422;13.754;2023-06-24T05:12:39;15.23;;;8.23;;
14165;SDS011;7162;52.422;13.754;2023-06-24T05:15:06;12.40;;;7.70;;
14165;SDS011;7162;52.422;13.754;2023-06-24T05:17:36;14.63;;;9.87;;
14165;SDS011;7162;52.422;13.754;2023-06-24T05:20:03;15.20;;;9.40;;
14165;SDS011;7162;52.422;13.754;2023-06-24T05:22:30;16.10;;;8.27;;
14165;SDS011;7162;52.422;13.754;2023-06-24T05:24:57;12.90;;;7.97;;
14165;SDS011;7162;52.422;13.754;2023-06-24T05:27:24;15.00;;;8.13;;
14165;SDS011;7162;52.422;13.754;2023-06-24T05:29:51;17.93;;;7.93;;
14165;SDS011;7162;52.422;13.754;2023-06-24T05:32:18;15.43;;;9.33;;
14165;SDS011;7162;52.422;13.754;2023-06-24T05:34:47;17.43;;;9.33;;
14165;SDS011;7162;52.422;13.754;2023-06-24T05:37:14;17.40;;;9.07;;
14165;SDS011;7162;52.422;13.754;2023-06-24T05:39:41;21.10;;;10.20;;
14165;SDS011;7162;52.422;13.754;2023-06-24T05:42:08;14.73;;;8.77;;
14165;SDS011;7162;52.422;13.754;2023-06-24T05:44:35;14.43;;;8.40;;
14165;SDS011;7162;52.422;13.754;2023-06-24T05:47:02;13.03;;;8.80;;
14165;SDS011;7162;52.422;13.754;2023-06-24T05:49:29;23.23;;;8.87;;
14165;SDS011;7162;52.422;13.754;2023-06-24T05:51:58;15.23;;;8.37;;
14165;SDS011;7162;52.422;13.754;2023-06-24T05:54:25;15.97;;;8.57;;
14165;SDS011;7162;52.422;13.754;2023-06-24T05:56:52;19.60;;;8.27;;
14165;SDS011;7162;52.422;13.754;2023-06-24T05:59:19;14.70;;;8.40;;
14165;SDS011;7162;52.422;13.754;2023-06-24T06:01:46;12.90;;;9.23;;
14165;SDS011;7162;52.422;13.754;2023-06-24T06:04:13;15.60;;;7.93;;
14165;SDS011;7162;52.422;13.754;2023-06-24T06:06:40;13.63;;;8.80;;
14165;SDS011;7162;52.422;13.754;2023-06-24T06:09:08;31.43;;;10.13;;
14165;SDS011;7162;52.422;13.754;2023-06-24T06:11:35;16.50;;;9.63;;
14165;SDS011;7162;52.422;13.754;2023-06-24T06:14:02;18.80;;;10.07;;
14165;SDS011;7162;52.422;13.754;2023-06-24T06:16:29;15.40;;;9.63;;
14165;SDS011;7162;52.422;13.754;2023-06-24T06:18:56;14.50;;;8.93;;
14165;SDS011;7162;52.422;13.754;2023-06-24T06:21:23;12.90;;;6.57;;
14165;SDS011;7162;52.422;13.754;2023-06-24T06:23:50;12.00;;;6.67;;
14165;SDS011;7162;52.422;13.754;2023-06-24T06:26:19;11.30;;;7.60;;
14165;SDS011;7162;52.422;13.754;2023-06-24T06:28:46;19.03;;;11.47;;
14165;SDS011;7162;52.422;13.754;2023-06-24T06:31:13;22.83;;;11.67;;
14165;SDS011;7162;52.422;13.754;2023-06-24T06:33:40;20.03;;;11.23;;
14165;SDS011;7162;52.422;13.754;2023-06-24T06:36:07;10.47;;;7.27;;
14165;SDS011;7162;52.422;13.754;2023-06-24T06:38:34;16.80;;;7.97;;
14165;SDS011;7162;52.422;13.754;2023-06-24T06:41:01;14.80;;;7.40;;
14165;SDS011;7162;52.422;13.754;2023-06-24T06:43:29;9.87;;;6.27;;
14165;SDS011;7162;52.422;13.754;2023-06-24T06:45:56;13.33;;;7.27;;
14165;SDS011;7162;52.422;13.754;2023-06-24T06:48:23;11.20;;;6.73;;
14165;SDS011;7162;52.422;13.754;2023-06-24T06:50:50;12.27;;;7.47;;
14165;SDS011;7162;52.422;13.754;2023-06-24T06:53:18;13.63;;;7.57;;
14165;SDS011;7162;52.422;13.754;2023-06-24T06:55:45;14.20;;;8.47;;
14165;SDS011;7162;52.422;13.754;2023-06-24T06:58:12;29.57;;;13.00;;
14165;SDS011;7162;52.422;13.754;2023-06-24T07:00:40;15.30;;;7.23;;
14165;SDS011;7162;52.422;13.754;2023-06-24T07:03:07;16.93;;;7.43;;
14165;SDS011;7162;52.422;13.754;2023-06-24T07:05:34;19.73;;;11.77;;
14165;SDS011;7162;52.422;13.754;2023-06-24T07:08:01;24.60;;;10.43;;
14165;SDS011;7162;52.422;13.754;2023-06-24T07:10:28;12.50;;;8.20;;
14165;SDS011;7162;52.422;13.754;2023-06-24T07:12:55;14.37;;;7.13;;
14165;SDS011;7162;52.422;13.754;2023-06-24T07:15:23;9.20;;;6.60;;
14165;SDS011;7162;52.422;13.754;2023-06-24T07:17:51;21.00;;;7.50;;
14165;SDS011;7162;52.422;13.754;2023-06-24T07:20:19;31.57;;;15.00;;
14165;SDS011;7162;52.422;13.754;2023-06-24T07:22:46;22.13;;;12.60;;
14165;SDS011;7162;52.422;13.754;2023-06-24T07:25:13;11.83;;;8.00;;
14165;SDS011;7162;52.422;13.754;2023-06-24T07:27:40;13.43;;;8.30;;
14165;SDS011;7162;52.422;13.754;2023-06-24T07:30:07;22.43;;;9.20;;
14165;SDS011;7162;52.422;13.754;2023-06-24T07:32:34;11.13;;;7.10;;
14165;SDS011;7162;52.422;13.754;2023-06-24T07:35:03;14.93;;;8.23;;
14165;SDS011;7162;52.422;13.754;2023-06-24T07:37:30;8.93;;;6.23;;
14165;SDS011;7162;52.422;13.754;2023-06-24T07:39:57;14.30;;;8.77;;
14165;SDS011;7162;52.422;13.754;2023-06-24T07:42:24;11.80;;;6.30;;
14165;SDS011;7162;52.422;13.754;2023-06-24T07:44:51;8.43;;;6.07;;
14165;SDS011;7162;52.422;13.754;2023-06-24T07:47:18;12.60;;;6.40;;
14165;SDS011;7162;52.422;13.754;2023-06-24T07:49:45;12.40;;;6.07;;
14165;SDS011;7162;52.422;13.754;2023-06-24T07:52:13;9.30;;;5.70;;
14165;SDS011;7162;52.422;13.754;2023-06-24T07:54:40;9.83;;;6.50;;
14165;SDS011;7162;52.422;13.754;2023-06-24T07:57:07;11.33;;;7.00;;
14165;SDS011;7162;52.422;13.754;2023-06-24T07:59:34;13.13;;;6.13;;
14165;SDS011;7162;52.422;13.754;2023-06-24T08:02:01;14.03;;;7.00;;
14165;SDS011;7162;52.422;13.754;2023-06-24T08:04:28;11.37;;;6.50;;
14165;SDS011;7162;52.422;13.754;2023-06-24T08:06:55;41.57;;;24.87;;
14165;SDS011;7162;52.422;13.754;2023-06-24T08:09:24;42.43;;;24.00;;
14165;SDS011;7162;52.422;13.754;2023-06-24T08:11:50;12.23;;;6.83;;
14165;SDS011;7162;52.422;13.754;2023-06-24T08:14:17;12.37;;;7.70;;
14165;SDS011;7162;52.422;13.754;2023-06-24T08:16:46;11.33;;;6.17;;
14165;SDS011;7162;52.422;13.754;2023-06-24T08:19:13;13.30;;;7.17;;
14165;SDS011;7162;52.422;13.754;2023-06-24T08:21:40;12.60;;;6.77;;
14165;SDS011;7162;52.422;13.754;2023-06-24T08:24:07;11.40;;;8.57;;
14165;SDS011;7162;52.422;13.754;2023-06-24T08:26:36;16.20;;;9.63;;
14165;SDS011;7162;52.422;13.754;2023-06-24T08:29:03;20.33;;;10.30;;
14165;SDS011;7162;52.422;13.754;2023-06-24T08:31:31;19.30;;;10.30;;
14165;SDS011;7162;52.422;13.754;2023-06-24T08:33:58;15.17;;;9.50;;
14165;SDS011;7162;52.422;13.754;2023-06-24T08:36:27;11.37;;;6.20;;
14165;SDS011;7162;52.422;13.754;2023-06-24T08:38:55;8.87;;;5.13;;
14165;SDS011;7162;52.422;13.754;2023-06-24T08:41:22;9.13;;;5.70;;
14165;SDS011;7162;52.422;13.754;2023-06-24T08:43:52;7.70;;;4.73;;
14165;SDS011;7162;52.422;13.754;2023-06-24T08:46:19;10.03;;;4.70;;
14165;SDS011;7162;52.422;13.754;2023-06-24T08:48:48;6.60;;;4.20;;
14165;SDS011;7162;52.422;13.754;2023-06-24T08:51:17;7.93;;;5.30;;
14165;SDS011;7162;52.422;13.754;2023-06-24T08:53:45;13.07;;;7.03;;
14165;SDS011;7162;52.422;13.754;2023-06-24T08:56:12;41.70;;;20.70;;
14165;SDS011;7162;52.422;13.754;2023-06-24T08:58:40;19.20;;;8.50;;
14165;SDS011;7162;52.422;13.754;2023-06-24T09:01:08;10.63;;;6.73;;
14165;SDS011;7162;52.422;13.754;2023-06-24T09:03:35;44.70;;;24.87;;
14165;SDS011;7162;52.422;13.754;2023-06-24T09:06:02;9.57;;;6.13;;
14165;SDS011;7162;52.422;13.754;2023-06-24T09:08:29;8.30;;;5.60;;
14165;SDS011;7162;52.422;13.754;2023-06-24T09:10:56;11.87;;;8.00;;
14165;SDS011;7162;52.422;13.754;2023-06-24T09:13:27;45.53;;;23.70;;
14165;SDS011;7162;52.422;13.754;2023-06-24T09:15:55;35.93;;;18.87;;
14165;SDS011;7162;52.422;13.754;2023-06-24T09:18:27;21.40;;;11.83;;
14165;SDS011;7162;52.422;13.754;2023-06-24T09:20:57;8.30;;;5.33;;
14165;SDS011;7162;52.422;13.754;2023-06-24T09:23:27;10.33;;;6.63;;
14165;SDS011;7162;52.422;13.754;2023-06-24T09:25:55;11.93;;;5.43;;
14165;SDS011;7162;52.422;13.754;2023-06-24T09:28:25;7.77;;;4.40;;
14165;SDS011;7162;52.422;13.754;2023-06-24T09:31:03;10.60;;;6.30;;
14165;SDS011;7162;52.422;13.754;2023-06-24T09:33:32;9.53;;;5.73;;
14165;SDS011;7162;52.422;13.754;2023-06-24T09:36:00;7.30;;;4.93;;
14165;SDS011;7162;52.422;13.754;2023-06-24T09:38:34;8.83;;;5.33;;
14165;SDS011;7162;52.422;13.754;2023-06-24T09:41:02;6.90;;;5.10;;
14165;SDS011;7162;52.422;13.754;2023-06-24T09:43:29;10.13;;;5.63;;
14165;SDS011;7162;52.422;13.754;2023-06-24T09:45:56;12.20;;;5.80;;
14165;SDS011;7162;52.422;13.754;2023-06-24T09:48:24;7.37;;;4.63;;
14165;SDS011;7162;52.422;13.754;2023-06-24T09:50:53;10.00;;;4.90;;
14165;SDS011;7162;52.422;13.754;2023-06-24T09:53:20;8.83;;;5.23;;
14165;SDS011;7162;52.422;13.754;2023-06-24T09:55:47;18.40;;;5.57;;
14165;SDS011;7162;52.422;13.754;2023-06-24T09:58:14;7.93;;;4.20;;
14165;SDS011;7162;52.422;13.754;2023-06-24T10:00:43;9.57;;;5.33;;
14165;SDS011;7162;52.422;13.754;2023-06-24T10:03:10;9.63;;;5.53;;
14165;SDS011;7162;52.422;13.754;2023-06-24T10:05:37;9.30;;;4.80;;
14165;SDS011;7162;52.422;13.754;2023-06-24T10:08:06;11.13;;;4.90;;
14165;SDS011;7162;52.422;13.754;2023-06-24T10:10:35;7.53;;;4.80;;
14165;SDS011;7162;52.422;13.754;2023-06-24T10:13:02;7.50;;;5.40;;
14165;SDS011;7162;52.422;13.754;2023-06-24T10:15:29;5.67;;;4.37;;
14165;SDS011;7162;52.422;13.754;2023-06-24T10:18:00;7.00;;;5.03;;
14165;SDS011;7162;52.422;13.754;2023-06-24T10:20:28;13.00;;;4.90;;
14165;SDS011;7162;52.422;13.754;2023-06-24T10:22:55;13.17;;;5.20;;
14165;SDS011;7162;52.422;13.754;2023-06-24T10:25:24;11.07;;;5.93;;
14165;SDS011;7162;52.422;13.754;2023-06-24T10:27:53;8.73;;;6.07;;
14165;SDS011;7162;52.422;13.754;2023-06-24T10:30:20;6.10;;;4.13;;
14165;SDS011;7162;52.422;13.754;2023-06-24T10:32:50;12.63;;;4.33;;
14165;SDS011;7162;52.422;13.754;2023-06-24T10:35:22;5.27;;;3.80;;
14165;SDS011;7162;52.422;13.754;2023-06-24T10:37:56;9.23;;;3.60;;
14165;SDS011;7162;52.422;13.754;2023-06-24T10:40:38;13.23;;;5.07;;
14165;SDS011;7162;52.422;13.754;2023-06-24T10:45:48;8.03;;;4.73;;
14165;SDS011;7162;52.422;13.754;2023-06-24T10:48:16;9.70;;;4.33;;
14165;SDS011;7162;52.422;13.754;2023-06-24T10:50:44;8.30;;;4.70;;
14165;SDS011;7162;52.422;13.754;2023-06-24T10:53:12;4.97;;;4.03;;
14165;SDS011;7162;52.422;13.754;2023-06-24T10:55:40;6.63;;;4.43;;
14165;SDS011;7162;52.422;13.754;2023-06-24T10:58:08;4.57;;;4.13;;
14165;SDS011;7162;52.422;13.754;2023-06-24T11:00:37;6.40;;;4.00;;
14165;SDS011;7162;52.422;13.754;2023-06-24T11:03:07;4.40;;;4.00;;
14165;SDS011;7162;52.422;13.754;2023-06-24T11:05:34;6.43;;;4.00;;
14165;SDS011;7162;52.422;13.754;2023-06-24T11:08:01;7.73;;;4.10;;
14165;SDS011;7162;52.422;13.754;2023-06-24T11:10:28;9.63;;;4.43;;
14165;SDS011;7162;52.422;13.754;2023-06-24T11:12:58;9.40;;;5.97;;
14165;SDS011;7162;52.422;13.754;2023-06-24T11:15:31;6.57;;;3.60;;
14165;SDS011;7162;52.422;13.754;2023-06-24T11:17:58;9.60;;;3.90;;
14165;SDS011;7162;52.422;13.754;2023-06-24T11:20:28;17.63;;;4.63;;
14165;SDS011;7162;52.422;13.754;2023-06-24T11:22:55;4.20;;;3.10;;
14165;SDS011;7162;52.422;13.754;2023-06-24T11:25:22;4.97;;;3.60;;
14165;SDS011;7162;52.422;13.754;2023-06-24T11:27:49;4.70;;;3.90;;
14165;SDS011;7162;52.422;13.754;2023-06-24T11:30:18;8.07;;;4.23;;
14165;SDS011;7162;52.422;13.754;2023-06-24T11:32:45;5.03;;;3.53;;
14165;SDS011;7162;52.422;13.754;2023-06-24T11:35:14;8.90;;;4.20;;
14165;SDS011;7162;52.422;13.754;2023-06-24T11:37:42;10.10;;;5.10;;
14165;SDS011;7162;52.422;13.754;2023-06-24T11:40:09;7.70;;;4.67;;
14165;SDS011;7162;52.422;13.754;2023-06-24T11:42:36;10.00;;;4.40;;
14165;SDS011;7162;52.422;13.754;2023-06-24T11:45:05;10.23;;;3.23;;
14165;SDS011;7162;52.422;13.754;2023-06-24T11:47:33;4.60;;;3.00;;
14165;SDS011;7162;52.422;13.754;2023-06-24T11:50:01;5.13;;;3.30;;
14165;SDS011;7162;52.422;13.754;2023-06-24T11:52:32;6.57;;;4.33;;
14165;SDS011;7162;52.422;13.754;2023-06-24T11:54:59;8.43;;;4.10;;
14165;SDS011;7162;52.422;13.754;2023-06-24T12:00:11;7.00;;;3.77;;
14165;SDS011;7162;52.422;13.754;2023-06-24T12:02:40;8.03;;;3.90;;
14165;SDS011;7162;52.422;13.754;2023-06-24T12:05:07;5.97;;;4.03;;
14165;SDS011;7162;52.422;13.754;2023-06-24T12:07:34;4.10;;;3.40;;
14165;SDS011;7162;52.422;13.754;2023-06-24T12:10:01;4.10;;;3.53;;
14165;SDS011;7162;52.422;13.754;2023-06-24T12:12:28;5.90;;;4.13;;
14165;SDS011;7162;52.422;13.754;2023-06-24T12:14:55;3.77;;;3.00;;
14165;SDS011;7162;52.422;13.754;2023-06-24T12:17:22;5.60;;;3.73;;
14165;SDS011;7162;52.422;13.754;2023-06-24T12:19:50;7.17;;;4.30;;
14165;SDS011;7162;52.422;13.754;2023-06-24T12:22:17;8.43;;;4.30;;
14165;SDS011;7162;52.422;13.754;2023-06-24T12:24:45;5.80;;;4.07;;
14165;SDS011;7162;52.422;13.754;2023-06-24T12:27:12;5.97;;;4.00;;
14165;SDS011;7162;52.422;13.754;2023-06-24T12:29:39;5.13;;;3.63;;
14165;SDS011;7162;52.422;13.754;2023-06-24T12:32:07;5.50;;;3.80;;
14165;SDS011;7162;52.422;13.754;2023-06-24T12:34:34;4.33;;;3.50;;
14165;SDS011;7162;52.422;13.754;2023-06-24T12:37:02;6.43;;;4.57;;
14165;SDS011;7162;52.422;13.754;2023-06-24T12:39:29;7.20;;;4.83;;
14165;SDS011;7162;52.422;13.754;2023-06-24T12:41:56;6.10;;;4.17;;
14165;SDS011;7162;52.422;13.754;2023-06-24T12:44:23;10.00;;;4.37;;
14165;SDS011;7162;52.422;13.754;2023-06-24T12:46:50;13.33;;;3.73;;
14165;SDS011;7162;52.422;13.754;2023-06-24T12:49:17;4.57;;;3.60;;
14165;SDS011;7162;52.422;13.754;2023-06-24T12:51:44;3.20;;;2.90;;
14165;SDS011;7162;52.422;13.754;2023-06-24T12:54:12;3.70;;;2.70;;
14165;SDS011;7162;52.422;13.754;2023-06-24T12:56:39;5.67;;;3.07;;
14165;SDS011;7162;52.422;13.754;2023-06-24T12:59:06;4.47;;;3.80;;
14165;SDS011;7162;52.422;13.754;2023-06-24T13:01:33;4.00;;;3.47;;
14165;SDS011;7162;52.422;13.754;2023-06-24T13:04:00;9.13;;;3.73;;
14165;SDS011;7162;52.422;13.754;2023-06-24T13:06:27;5.23;;;4.10;;
14165;SDS011;7162;52.422;13.754;2023-06-24T13:08:54;6.53;;;4.90;;
14165;SDS011;7162;52.422;13.754;2023-06-24T13:11:22;9.00;;;3.80;;
14165;SDS011;7162;52.422;13.754;2023-06-24T13:13:49;7.03;;;3.60;;
14165;SDS011;7162;52.422;13.754;2023-06-24T13:16:16;10.03;;;3.20;;
14165;SDS011;7162;52.422;13.754;2023-06-24T13:18:43;3.63;;;3.20;;
14165;SDS011;7162;52.422;13.754;2023-06-24T13:21:10;14.47;;;6.80;;
14165;SDS011;7162;52.422;13.754;2023-06-24T13:23:38;4.17;;;2.83;;
14165;SDS011;7162;52.422;13.754;2023-06-24T13:26:06;4.00;;;3.03;;
14165;SDS011;7162;52.422;13.754;2023-06-24T13:28:35;3.90;;;3.20;;
14165;SDS011;7162;52.422;13.754;2023-06-24T13:31:02;4.07;;;3.17;;
14165;SDS011;7162;52.422;13.754;2023-06-24T13:33:29;5.40;;;3.60;;
14165;SDS011;7162;52.422;13.754;2023-06-24T13:35:56;4.80;;;3.50;;
14165;SDS011;7162;52.422;13.754;2023-06-24T13:38:22;6.50;;;2.80;;
14165;SDS011;7162;52.422;13.754;2023-06-24T13:40:49;8.93;;;4.03;;
14165;SDS011;7162;52.422;13.754;2023-06-24T13:43:16;5.47;;;3.20;;
14165;SDS011;7162;52.422;13.754;2023-06-24T13:45:45;5.20;;;3.13;;
14165;SDS011;7162;52.422;13.754;2023-06-24T13:48:12;4.47;;;2.93;;
14165;SDS011;7162;52.422;13.754;2023-06-24T13:50:39;4.50;;;3.00;;
14165;SDS011;7162;52.422;13.754;2023-06-24T13:53:06;13.57;;;3.20;;
14165;SDS011;7162;52.422;13.754;2023-06-24T13:55:33;8.30;;;3.10;;
14165;SDS011;7162;52.422;13.754;2023-06-24T13:58:01;7.10;;;3.47;;
14165;SDS011;7162;52.422;13.754;2023-06-24T14:00:28;4.27;;;3.20;;
14165;SDS011;7162;52.422;13.754;2023-06-24T14:02:56;3.33;;;3.03;;
14165;SDS011;7162;52.422;13.754;2023-06-24T14:05:23;5.53;;;2.70;;
14165;SDS011;7162;52.422;13.754;2023-06-24T14:07:50;3.30;;;3.00;;
14165;SDS011;7162;52.422;13.754;2023-06-24T14:10:17;4.43;;;3.70;;
14165;SDS011;7162;52.422;13.754;2023-06-24T14:12:44;3.28;;;3.05;;
14165;SDS011;7162;52.422;13.754;2023-06-24T14:15:11;3.20;;;2.90;;
14165;SDS011;7162;52.422;13.754;2023-06-24T14:17:38;5.10;;;3.78;;
14165;SDS011;7162;52.422;13.754;2023-06-24T14:20:07;4.07;;;3.67;;
14165;SDS011;7162;52.422;13.754;2023-06-24T14:22:34;3.72;;;3.15;;
14165;SDS011;7162;52.422;13.754;2023-06-24T14:25:01;6.07;;;4.15;;
14165;SDS011;7162;52.422;13.754;2023-06-24T14:27:28;12.80;;;3.45;;
14165;SDS011;7162;52.422;13.754;2023-06-24T14:29:55;3.00;;;2.70;;
14165;SDS011;7162;52.422;13.754;2023-06-24T14:32:22;3.33;;;3.03;;
14165;SDS011;7162;52.422;13.754;2023-06-24T14:34:49;7.10;;;3.20;;
14165;SDS011;7162;52.422;13.754;2023-06-24T14:37:18;4.38;;;3.97;;
14165;SDS011;7162;52.422;13.754;2023-06-24T14:39:45;3.05;;;2.70;;
14165;SDS011;7162;52.422;13.754;2023-06-24T14:42:12;4.28;;;3.50;;
14165;SDS011;7162;52.422;13.754;2023-06-24T14:44:39;6.18;;;3.92;;